Time;durP1;ratioP1;P1;durP2;ratioP2;P2;SDS_P1;SDS_P2;PMS_P1;PMS_P2;Temp;Humidity;BMP_temperature;BMP_pressure;BME280_temperature;BME280_humidity;BME280_pressure;Samples;Min_cycle;Max_cycle;Signal;HPM_P1;HPM_P2
2022/03/06 00:00:30;;;;;;;53.63;15.50;;;0.70;23.30;;;;;;5023080;28;21258;-59
2022/03/06 00:02:57;;;;;;;56.80;15.00;;;0.70;23.20;;;;;;5026921;28;20478;-62
2022/03/06 00:05:24;;;;;;;55.30;15.73;;;0.70;23.40;;;;;;5021911;28;20579;-59
2022/03/06 00:07:51;;;;;;;59.13;17.90;;;0.60;23.20;;;;;;5019055;28;20468;-58
2022/03/06 00:10:17;;;;;;;54.63;14.70;;;0.60;23.30;;;;;;5022368;28;20459;-59
2022/03/06 00:12:46;;;;;;;57.63;15.83;;;0.60;23.40;;;;;;5020226;28;20973;-60
2022/03/06 00:15:13;;;;;;;56.00;15.53;;;0.60;23.50;;;;;;5022837;28;20474;-58
2022/03/06 00:17:40;;;;;;;55.40;15.17;;;0.60;23.50;;;;;;5019977;28;20463;-60
2022/03/06 00:20:09;;;;;;;57.97;18.70;;;0.60;23.40;;;;;;5021584;28;20507;-61
2022/03/06 00:22:36;;;;;;;58.50;14.97;;;0.60;23.50;;;;;;5017579;28;20492;-60
2022/03/06 00:25:03;;;;;;;57.37;15.93;;;0.60;23.50;;;;;;5017600;28;20471;-62
2022/03/06 00:27:30;;;;;;;55.40;16.97;;;0.50;23.60;;;;;;5014881;28;20484;-61
2022/03/06 00:29:58;;;;;;;56.93;16.93;;;0.50;23.80;;;;;;5015851;28;20470;-61
2022/03/06 00:32:25;;;;;;;56.37;15.80;;;0.50;23.80;;;;;;5012439;28;20476;-60
2022/03/06 00:34:52;;;;;;;56.97;17.07;;;0.50;23.90;;;;;;5017095;28;20503;-59
2022/03/06 00:37:19;;;;;;;57.37;15.93;;;0.40;24.00;;;;;;5021624;28;20483;-58
2022/03/06 00:39:45;;;;;;;56.20;16.23;;;0.40;24.10;;;;;;5013889;28;20564;-59
2022/03/06 00:42:12;;;;;;;58.13;16.40;;;0.40;24.10;;;;;;5018789;28;20462;-60
2022/03/06 00:44:39;;;;;;;56.93;16.43;;;0.30;24.40;;;;;;5025415;28;20463;-59
2022/03/06 00:47:07;;;;;;;55.43;16.70;;;0.30;24.40;;;;;;5024662;28;20483;-60
2022/03/06 00:49:34;;;;;;;53.77;15.63;;;0.30;24.80;;;;;;5017190;28;20953;-60
2022/03/06 00:52:01;;;;;;;59.33;17.90;;;0.30;24.80;;;;;;5011228;28;20471;-60
2022/03/06 00:54:28;;;;;;;60.10;16.10;;;0.20;24.90;;;;;;5019330;28;20463;-58
2022/03/06 00:56:55;;;;;;;59.80;17.00;;;0.20;25.00;;;;;;5020191;28;20507;-57
2022/03/06 00:59:22;;;;;;;59.83;17.63;;;0.20;25.20;;;;;;5017862;28;20479;-60
2022/03/06 01:01:49;;;;;;;60.53;18.23;;;0.20;25.90;;;;;;5015677;28;20479;-59
2022/03/06 01:04:17;;;;;;;59.73;17.37;;;0.20;25.40;;;;;;5022243;28;22407;-60
2022/03/06 01:06:44;;;;;;;58.17;16.17;;;0.10;25.30;;;;;;5020566;28;21034;-59
2022/03/06 01:09:12;;;;;;;56.63;16.13;;;0.10;25.60;;;;;;5020319;28;20463;-60
2022/03/06 01:11:39;;;;;;;63.20;17.60;;;0.10;25.80;;;;;;5013301;28;20522;-60
2022/03/06 01:14:06;;;;;;;60.03;17.23;;;0.10;26.10;;;;;;5013218;28;20475;-60
2022/03/06 01:16:32;;;;;;;58.70;16.03;;;0.10;26.00;;;;;;5019607;28;20483;-60
2022/03/06 01:18:59;;;;;;;54.97;15.27;;;0.00;25.90;;;;;;5023270;28;20462;-61
2022/03/06 01:21:27;;;;;;;59.70;18.17;;;0.00;25.70;;;;;;5011666;28;20460;-62
2022/03/06 01:23:54;;;;;;;56.70;16.53;;;0.00;25.90;;;;;;5017796;28;20526;-61
2022/03/06 01:26:21;;;;;;;56.90;16.33;;;0.00;25.90;;;;;;5016914;28;20873;-62
2022/03/06 01:28:48;;;;;;;55.20;16.27;;;0.00;26.10;;;;;;5016708;28;20468;-61
2022/03/06 01:31:14;;;;;;;58.80;17.20;;;-0.10;26.30;;;;;;5021344;28;20495;-61
2022/03/06 01:33:42;;;;;;;59.60;17.93;;;-0.10;26.50;;;;;;5018767;28;20459;-60
2022/03/06 01:36:08;;;;;;;62.27;17.57;;;-0.10;26.90;;;;;;5025796;28;20481;-61
2022/03/06 01:38:36;;;;;;;57.93;16.57;;;-0.10;26.90;;;;;;5026547;28;20554;-61
2022/03/06 01:41:04;;;;;;;58.97;16.97;;;-0.20;26.80;;;;;;5021533;28;20482;-62
2022/03/06 01:43:30;;;;;;;60.73;16.13;;;-0.10;27.20;;;;;;5030108;28;20560;-62
2022/03/06 01:45:57;;;;;;;60.50;16.90;;;-0.20;27.40;;;;;;5027754;28;20486;-61
2022/03/06 01:48:24;;;;;;;60.97;16.33;;;-0.20;27.70;;;;;;5022956;28;20464;-61
2022/03/06 01:50:51;;;;;;;57.10;16.30;;;-0.20;27.50;;;;;;5023274;28;20455;-60
2022/03/06 01:53:17;;;;;;;59.90;16.70;;;-0.30;27.50;;;;;;5020818;28;20466;-59
2022/03/06 01:55:45;;;;;;;60.47;18.03;;;-0.20;27.60;;;;;;5016748;28;21021;-62
2022/03/06 01:58:13;;;;;;;58.70;15.83;;;-0.30;27.90;;;;;;5019808;28;20469;-61
2022/03/06 02:00:42;;;;;;;59.33;17.40;;;-0.30;28.00;;;;;;5024547;28;20463;-61
2022/03/06 02:03:09;;;;;;;58.87;18.90;;;-0.30;27.90;;;;;;5020868;28;20533;-60
2022/03/06 02:05:37;;;;;;;58.30;17.53;;;-0.30;27.80;;;;;;5024811;28;20557;-60
2022/03/06 02:08:05;;;;;;;58.60;16.50;;;-0.30;27.80;;;;;;5025926;28;20466;-60
2022/03/06 02:10:32;;;;;;;58.77;16.73;;;-0.40;28.00;;;;;;5022317;28;20542;-59
2022/03/06 02:13:00;;;;;;;58.50;17.40;;;-0.40;28.10;;;;;;5022376;28;20472;-60
2022/03/06 02:15:28;;;;;;;57.97;15.30;;;-0.40;28.30;;;;;;5023055;28;21131;-59
2022/03/06 02:17:54;;;;;;;55.70;16.07;;;-0.40;28.30;;;;;;5024868;28;20526;-58
2022/03/06 02:20:23;;;;;;;58.67;17.10;;;-0.40;28.30;;;;;;5038019;28;20582;-62
2022/03/06 02:22:53;;;;;;;60.70;16.70;;;-0.40;28.40;;;;;;5026629;28;20463;-57
2022/03/06 02:25:21;;;;;;;60.13;16.63;;;-0.40;28.20;;;;;;5021159;28;20463;-60
2022/03/06 02:27:51;;;;;;;58.60;16.53;;;-0.40;28.80;;;;;;5028943;28;20462;-59
2022/03/06 02:30:20;;;;;;;60.33;17.70;;;-0.50;29.10;;;;;;5023621;28;20460;-61
2022/03/06 02:32:48;;;;;;;57.30;16.50;;;-0.50;29.40;;;;;;5025189;28;20952;-57
2022/03/06 02:35:16;;;;;;;59.47;16.13;;;-0.50;29.10;;;;;;5027695;28;20474;-59
2022/03/06 02:37:43;;;;;;;58.40;17.17;;;-0.50;29.20;;;;;;5024761;28;20474;-60
2022/03/06 02:40:14;;;;;;;58.60;17.27;;;-0.50;29.20;;;;;;5021471;28;20479;-59
2022/03/06 02:42:43;;;;;;;58.40;17.67;;;-0.50;29.10;;;;;;5024200;28;20478;-61
2022/03/06 02:45:11;;;;;;;59.13;18.17;;;-0.50;29.30;;;;;;5023986;28;20566;-61
2022/03/06 02:47:38;;;;;;;60.00;18.40;;;-0.50;29.20;;;;;;5019606;28;20464;-60
2022/03/06 02:50:07;;;;;;;62.83;20.03;;;-0.50;29.40;;;;;;5017105;28;20470;-62
2022/03/06 02:52:34;;;;;;;58.10;16.90;;;-0.50;29.20;;;;;;5025750;28;20459;-61
2022/03/06 02:55:01;;;;;;;57.00;17.87;;;-0.50;29.30;;;;;;5025765;28;20459;-61
2022/03/06 02:57:29;;;;;;;58.23;17.40;;;-0.50;29.20;;;;;;5023000;28;20462;-61
2022/03/06 02:59:56;;;;;;;59.27;17.20;;;-0.50;29.20;;;;;;5023649;28;20487;-59
2022/03/06 03:02:23;;;;;;;58.40;17.70;;;-0.50;29.10;;;;;;5019092;28;20489;-60
2022/03/06 03:04:50;;;;;;;61.40;17.37;;;-0.50;29.30;;;;;;5030377;28;20458;-61
2022/03/06 03:07:17;;;;;;;58.77;18.00;;;-0.50;29.20;;;;;;5021028;28;20584;-60
2022/03/06 03:09:44;;;;;;;57.50;15.40;;;-0.50;29.80;;;;;;5017220;28;20460;-61
2022/03/06 03:12:11;;;;;;;61.47;19.33;;;-0.60;29.60;;;;;;5027301;28;20459;-59
2022/03/06 03:14:39;;;;;;;58.27;18.23;;;-0.60;29.60;;;;;;5018189;28;20464;-61
2022/03/06 03:17:07;;;;;;;63.23;20.10;;;-0.60;29.40;;;;;;5024573;28;20493;-62
2022/03/06 03:19:34;;;;;;;63.80;20.33;;;-0.60;29.70;;;;;;5019369;28;20460;-60
2022/03/06 03:22:01;;;;;;;62.03;19.23;;;-0.60;29.50;;;;;;5020523;28;20456;-60
2022/03/06 03:24:28;;;;;;;62.80;17.30;;;-0.60;29.30;;;;;;5022566;28;20470;-62
2022/03/06 03:26:55;;;;;;;61.67;19.87;;;-0.60;30.00;;;;;;5019049;28;21302;-59
2022/03/06 03:29:22;;;;;;;60.63;18.17;;;-0.60;30.20;;;;;;5020485;28;20471;-60
2022/03/06 03:31:50;;;;;;;55.97;17.30;;;-0.70;30.40;;;;;;5017163;28;20478;-61
2022/03/06 03:34:17;;;;;;;65.60;17.63;;;-0.60;30.70;;;;;;5020146;28;22979;-60
2022/03/06 03:36:43;;;;;;;60.03;17.20;;;-0.60;30.60;;;;;;5019972;28;20495;-60
2022/03/06 03:39:10;;;;;;;58.53;15.97;;;-0.70;30.40;;;;;;5025042;28;20493;-61
2022/03/06 03:41:37;;;;;;;60.50;16.33;;;-0.70;30.50;;;;;;5019445;28;20487;-61
2022/03/06 03:44:04;;;;;;;58.77;18.80;;;-0.70;30.50;;;;;;5019822;28;20975;-59
2022/03/06 03:46:31;;;;;;;58.70;17.40;;;-0.70;30.50;;;;;;5015988;28;20475;-61
2022/03/06 03:48:59;;;;;;;59.53;18.03;;;-0.70;30.60;;;;;;5020362;28;20834;-60
2022/03/06 03:51:27;;;;;;;64.37;19.33;;;-0.80;30.50;;;;;;5021362;28;20807;-60
2022/03/06 03:53:53;;;;;;;59.17;18.17;;;-0.70;30.40;;;;;;5022472;28;20459;-62
2022/03/06 03:56:22;;;;;;;58.43;16.80;;;-0.40;30.40;;;;;;5018535;28;20490;-62
2022/03/06 03:58:49;;;;;;;58.37;17.90;;;-0.70;30.40;;;;;;5017631;28;20471;-57
2022/03/06 04:01:17;;;;;;;64.27;19.27;;;-0.70;30.20;;;;;;5015693;28;21118;-61
2022/03/06 04:03:44;;;;;;;59.27;17.03;;;-0.70;30.20;;;;;;5018903;28;21264;-62
2022/03/06 04:06:13;;;;;;;59.80;18.87;;;-0.70;30.30;;;;;;5056607;23;20509;-62
2022/03/06 04:08:39;;;;;;;59.17;17.07;;;-0.80;30.30;;;;;;5066124;28;20461;-61
2022/03/06 04:11:06;;;;;;;62.30;18.03;;;-0.80;30.30;;;;;;5063965;28;20465;-61
2022/03/06 04:13:33;;;;;;;62.57;18.00;;;-0.80;30.30;;;;;;5063445;28;20490;-61
2022/03/06 04:16:00;;;;;;;61.27;17.97;;;-0.40;30.50;;;;;;5053417;28;20489;-61
2022/03/06 04:18:27;;;;;;;63.37;19.37;;;-0.80;30.30;;;;;;5045755;28;20462;-61
2022/03/06 04:20:54;;;;;;;64.67;18.53;;;-0.80;30.40;;;;;;5041789;28;20489;-62
2022/03/06 04:23:22;;;;;;;60.93;18.57;;;-0.80;30.40;;;;;;5042287;28;20458;-61
2022/03/06 04:25:49;;;;;;;63.40;18.80;;;-0.80;30.90;;;;;;5040828;28;20458;-60
2022/03/06 04:28:16;;;;;;;59.03;16.90;;;-0.80;31.50;;;;;;5034995;28;20469;-61
2022/03/06 04:30:42;;;;;;;58.07;15.90;;;-0.80;30.50;;;;;;5042771;28;20473;-61
2022/03/06 04:33:09;;;;;;;63.07;18.40;;;-0.80;30.90;;;;;;5038232;28;20458;-61
2022/03/06 04:35:36;;;;;;;59.63;19.37;;;-0.80;31.00;;;;;;5041259;28;20466;-61
2022/03/06 04:38:03;;;;;;;59.47;18.17;;;-0.80;31.00;;;;;;5036958;28;20839;-62
2022/03/06 04:40:31;;;;;;;58.00;17.27;;;-0.90;31.10;;;;;;5039768;28;20486;-61
2022/03/06 04:42:57;;;;;;;59.00;17.63;;;-0.90;31.20;;;;;;5037192;28;20465;-61
2022/03/06 04:45:25;;;;;;;58.40;17.27;;;-0.90;31.40;;;;;;5037719;28;20459;-62
2022/03/06 04:47:52;;;;;;;59.17;18.57;;;-0.70;31.10;;;;;;5037257;28;20905;-62
2022/03/06 04:50:19;;;;;;;62.90;16.87;;;-0.90;31.20;;;;;;5039735;28;21121;-61
2022/03/06 04:52:45;;;;;;;58.50;16.93;;;-0.90;31.20;;;;;;5039866;28;20454;-62
2022/03/06 04:55:12;;;;;;;58.57;17.87;;;-0.90;31.10;;;;;;5038595;28;20454;-62
2022/03/06 04:57:41;;;;;;;56.70;17.13;;;-0.90;31.50;;;;;;5039503;28;21113;-62
2022/03/06 05:00:09;;;;;;;57.40;17.70;;;-0.60;31.50;;;;;;5037068;28;20477;-62
2022/03/06 05:02:35;;;;;;;62.70;19.57;;;-0.90;31.10;;;;;;5034491;28;21267;-62
2022/03/06 05:05:02;;;;;;;58.10;17.40;;;-0.90;31.30;;;;;;5034207;28;20472;-62
2022/03/06 05:07:29;;;;;;;58.90;15.80;;;-0.90;31.10;;;;;;5001282;28;1067838;-61
2022/03/06 05:09:56;;;;;;;59.30;16.50;;;-0.90;31.10;;;;;;5039355;28;20469;-61
2022/03/06 05:12:23;;;;;;;57.17;15.93;;;-0.90;31.10;;;;;;5041317;28;20454;-61
2022/03/06 05:14:51;;;;;;;58.07;17.80;;;-0.90;31.20;;;;;;5035391;28;20485;-61
2022/03/06 05:17:19;;;;;;;60.23;17.80;;;-1.00;31.20;;;;;;5042487;28;21105;-60
2022/03/06 05:19:45;;;;;;;56.37;16.40;;;-0.90;31.30;;;;;;5038145;28;20472;-61
2022/03/06 05:22:12;;;;;;;56.60;17.37;;;-0.90;31.10;;;;;;5042499;28;20481;-61
2022/03/06 05:24:39;;;;;;;56.10;15.50;;;-1.00;31.30;;;;;;5036566;28;20553;-62
2022/03/06 05:27:06;;;;;;;60.47;17.50;;;-1.00;31.30;;;;;;5034897;28;20908;-61
2022/03/06 05:29:32;;;;;;;57.30;16.53;;;-1.00;31.50;;;;;;5038610;28;20466;-61
2022/03/06 05:32:00;;;;;;;55.53;15.00;;;-1.00;31.40;;;;;;5038797;28;20478;-61
2022/03/06 05:34:27;;;;;;;62.20;17.00;;;-1.00;31.40;;;;;;5037754;28;20462;-62
2022/03/06 05:36:54;;;;;;;60.10;15.73;;;-1.00;31.20;;;;;;5040058;28;20502;-62
2022/03/06 05:39:21;;;;;;;60.90;17.67;;;-1.00;31.20;;;;;;5037959;28;20473;-61
2022/03/06 05:41:48;;;;;;;56.73;16.33;;;-1.00;31.30;;;;;;5038911;28;20482;-62
2022/03/06 05:44:14;;;;;;;58.07;16.57;;;-1.00;31.20;;;;;;5033444;28;20591;-62
2022/03/06 05:46:41;;;;;;;58.33;17.50;;;-1.00;31.30;;;;;;5038819;28;20889;-62
2022/03/06 05:49:13;;;;;;;57.07;17.50;;;-1.00;31.30;;;;;;5038388;28;20477;-62
2022/03/06 05:51:40;;;;;;;57.47;17.40;;;-1.00;31.40;;;;;;5038481;28;20466;-62
2022/03/06 05:54:07;;;;;;;61.33;18.60;;;-1.00;31.30;;;;;;5041445;28;20520;-63
2022/03/06 05:56:34;;;;;;;56.77;15.80;;;-1.00;31.50;;;;;;5039813;28;21058;-61
2022/03/06 05:59:03;;;;;;;60.27;19.53;;;-0.90;31.60;;;;;;5035351;28;20466;-62
2022/03/06 06:01:30;;;;;;;55.63;16.43;;;-1.00;31.50;;;;;;5034790;28;20531;-61
2022/03/06 06:03:56;;;;;;;57.80;16.80;;;-1.00;31.40;;;;;;5034694;28;20466;-61
2022/03/06 06:06:25;;;;;;;57.07;17.00;;;-1.00;31.60;;;;;;5036233;28;20526;-61
2022/03/06 06:08:51;;;;;;;56.90;16.33;;;-0.90;31.80;;;;;;5034186;28;21070;-62
2022/03/06 06:11:19;;;;;;;57.83;17.87;;;-0.90;31.60;;;;;;5036253;28;20460;-61
2022/03/06 06:13:46;;;;;;;59.23;17.37;;;-0.80;31.70;;;;;;5033794;28;20462;-61
2022/03/06 06:16:12;;;;;;;55.53;15.53;;;-0.70;31.80;;;;;;5038203;28;20478;-61
2022/03/06 06:18:40;;;;;;;55.87;14.73;;;-0.60;31.70;;;;;;5038938;28;20454;-62
2022/03/06 06:21:07;;;;;;;63.80;18.47;;;-0.50;31.90;;;;;;5042021;28;20548;-62
2022/03/06 06:23:35;;;;;;;55.57;18.07;;;-0.40;31.50;;;;;;5044182;28;20472;-62
2022/03/06 06:26:02;;;;;;;53.17;16.10;;;-0.30;31.20;;;;;;5041476;28;20479;-60
2022/03/06 06:28:29;;;;;;;57.63;17.17;;;-0.10;31.50;;;;;;5036300;28;20469;-61
2022/03/06 06:30:55;;;;;;;57.77;16.80;;;0.00;30.40;;;;;;5041560;28;20983;-61
2022/03/06 06:33:22;;;;;;;54.60;16.27;;;0.20;30.00;;;;;;5040179;28;20467;-61
2022/03/06 06:35:49;;;;;;;54.10;15.70;;;0.60;29.60;;;;;;5037374;28;20463;-62
2022/03/06 06:38:16;;;;;;;56.53;16.37;;;0.70;29.10;;;;;;5044554;28;20475;-62
2022/03/06 06:40:44;;;;;;;57.13;16.93;;;1.00;28.50;;;;;;5038889;28;20493;-61
2022/03/06 06:43:11;;;;;;;57.30;17.20;;;1.30;27.90;;;;;;5037125;28;20465;-62
2022/03/06 06:45:37;;;;;;;57.37;16.40;;;1.70;27.10;;;;;;5040567;28;20463;-62
2022/03/06 06:48:05;;;;;;;54.10;17.43;;;2.10;26.30;;;;;;5041911;28;20467;-61
2022/03/06 06:50:32;;;;;;;52.63;16.37;;;2.40;25.30;;;;;;5041058;28;20458;-62
2022/03/06 06:52:59;;;;;;;51.03;16.23;;;2.60;24.60;;;;;;5041733;28;20549;-61
2022/03/06 06:55:26;;;;;;;54.83;18.00;;;2.80;24.00;;;;;;5040758;28;20480;-62
2022/03/06 06:57:54;;;;;;;54.50;15.93;;;2.90;23.50;;;;;;5042271;28;20489;-61
2022/03/06 07:00:21;;;;;;;55.40;17.90;;;2.90;23.10;;;;;;5041863;28;20477;-62
2022/03/06 07:02:48;;;;;;;50.37;15.40;;;3.00;22.70;;;;;;5043093;28;20493;-61
2022/03/06 07:05:15;;;;;;;56.17;18.37;;;3.10;22.50;;;;;;5038660;28;20476;-62
2022/03/06 07:07:42;;;;;;;52.67;15.77;;;3.30;22.40;;;;;;5040198;28;20496;-60
2022/03/06 07:10:10;;;;;;;53.63;18.37;;;3.70;22.50;;;;;;5034010;28;20996;-61
2022/03/06 07:12:43;;;;;;;56.90;19.87;;;4.10;22.50;;;;;;5037449;28;20463;-61
2022/03/06 07:15:13;;;;;;;55.50;19.20;;;4.70;21.80;;;;;;5037940;28;20462;-61
2022/03/06 07:17:40;;;;;;;52.57;16.83;;;5.30;20.90;;;;;;5041985;28;20496;-62
2022/03/06 07:20:08;;;;;;;57.60;19.17;;;6.00;19.50;;;;;;5035337;28;20466;-62
2022/03/06 07:22:37;;;;;;;51.80;17.50;;;6.60;18.20;;;;;;5038100;28;20855;-62
2022/03/06 07:25:05;;;;;;;54.30;20.00;;;7.10;16.40;;;;;;5039328;28;20465;-61
2022/03/06 07:27:32;;;;;;;50.00;16.30;;;7.70;15.00;;;;;;5039585;28;20494;-62
2022/03/06 07:29:58;;;;;;;51.87;17.67;;;8.10;14.10;;;;;;5041730;28;20458;-63
2022/03/06 07:32:27;;;;;;;51.20;15.53;;;8.40;12.80;;;;;;5038795;28;21051;-60
2022/03/06 07:34:53;;;;;;;49.17;15.77;;;8.60;12.30;;;;;;5038493;28;20450;-61
2022/03/06 07:37:20;;;;;;;49.60;15.80;;;9.00;11.80;;;;;;5041331;28;20481;-61
2022/03/06 07:39:47;;;;;;;50.70;17.80;;;9.40;11.10;;;;;;5041221;28;20459;-60
2022/03/06 07:42:14;;;;;;;48.23;17.30;;;9.90;10.30;;;;;;5035713;28;21504;-61
2022/03/06 07:44:40;;;;;;;49.00;15.70;;;10.80;9.00;;;;;;5038743;28;20478;-61
2022/03/06 07:47:08;;;;;;;46.87;16.60;;;11.80;7.40;;;;;;5034869;28;20486;-61
2022/03/06 07:49:36;;;;;;;47.97;16.13;;;12.80;6.00;;;;;;5037645;28;20458;-61
2022/03/06 07:52:03;;;;;;;54.70;19.00;;;13.90;4.80;;;;;;5039110;28;20474;-61
2022/03/06 07:54:30;;;;;;;46.70;17.43;;;14.90;3.20;;;;;;5040545;28;20455;-61
2022/03/06 07:56:56;;;;;;;46.00;16.70;;;16.00;1.40;;;;;;5036460;28;20483;-62
2022/03/06 07:59:25;;;;;;;44.67;15.13;;;17.00;1.00;;;;;;5041831;28;20462;-61
2022/03/06 08:01:52;;;;;;;46.10;17.33;;;17.90;1.00;;;;;;5034326;28;20475;-61
2022/03/06 08:04:19;;;;;;;42.60;15.73;;;18.30;1.00;;;;;;5037258;28;20470;-61
2022/03/06 08:06:47;;;;;;;44.67;16.30;;;18.70;1.00;;;;;;5036326;28;20486;-62
2022/03/06 08:09:14;;;;;;;45.17;16.10;;;19.30;1.00;;;;;;5037589;28;20466;-62
2022/03/06 08:11:40;;;;;;;42.50;16.20;;;20.10;1.00;;;;;;5035658;28;20492;-60
2022/03/06 08:14:07;;;;;;;41.03;15.70;;;20.70;1.00;;;;;;5037856;28;20463;-61
2022/03/06 08:16:34;;;;;;;42.27;15.40;;;21.20;1.00;;;;;;5039640;28;20481;-60
2022/03/06 08:19:01;;;;;;;41.73;16.17;;;21.70;1.00;;;;;;5039084;28;20465;-60
2022/03/06 08:21:27;;;;;;;41.10;14.93;;;21.90;1.00;;;;;;5039418;28;20483;-60
2022/03/06 08:23:56;;;;;;;42.53;16.50;;;22.50;1.00;;;;;;5039886;28;20462;-60
2022/03/06 08:26:23;;;;;;;40.97;16.93;;;23.20;1.00;;;;;;5034841;28;20482;-61
2022/03/06 08:28:50;;;;;;;40.20;14.77;;;23.90;1.00;;;;;;5038428;28;20458;-62
2022/03/06 08:31:17;;;;;;;40.60;16.03;;;23.80;1.00;;;;;;5038330;28;20478;-61
2022/03/06 08:33:44;;;;;;;40.13;15.90;;;23.70;1.00;;;;;;5040267;28;20845;-60
2022/03/06 08:36:12;;;;;;;41.37;15.57;;;23.60;1.00;;;;;;5035086;28;20475;-61
2022/03/06 08:38:39;;;;;;;39.27;15.10;;;24.40;1.00;;;;;;5033063;28;20554;-61
2022/03/06 08:41:07;;;;;;;39.60;15.70;;;24.90;1.00;;;;;;5038131;28;20457;-60
2022/03/06 08:43:34;;;;;;;41.10;16.10;;;24.90;1.00;;;;;;5029925;28;20490;-61
2022/03/06 08:46:03;;;;;;;40.30;17.20;;;24.30;1.00;;;;;;5034467;28;20486;-62
2022/03/06 08:48:30;;;;;;;39.83;16.17;;;23.70;1.00;;;;;;5034538;28;20458;-62
2022/03/06 08:50:57;;;;;;;38.40;14.23;;;23.80;1.00;;;;;;5039481;28;20455;-60
2022/03/06 08:53:24;;;;;;;41.80;15.90;;;24.60;1.00;;;;;;5041031;28;20490;-61
2022/03/06 08:55:50;;;;;;;40.77;15.77;;;24.70;1.00;;;;;;5034946;28;21142;-61
2022/03/06 08:58:19;;;;;;;40.60;14.73;;;24.50;1.00;;;;;;5040306;28;20469;-61
2022/03/06 09:00:46;;;;;;;42.17;16.90;;;24.30;1.00;;;;;;5036804;28;21094;-60
2022/03/06 09:03:12;;;;;;;39.60;14.40;;;24.40;1.00;;;;;;5041220;28;20497;-60
2022/03/06 09:05:40;;;;;;;41.20;15.30;;;25.20;1.00;;;;;;5041754;28;20469;-65
2022/03/06 09:08:09;;;;;;;38.30;15.30;;;25.90;1.00;;;;;;5038763;28;21045;-61
2022/03/06 09:10:35;;;;;;;39.73;16.53;;;25.90;1.00;;;;;;5030356;28;20481;-62
2022/03/06 09:13:03;;;;;;;40.53;16.27;;;25.80;1.00;;;;;;5039241;28;20469;-62
2022/03/06 09:15:31;;;;;;;42.53;15.53;;;25.40;1.00;;;;;;5034915;28;20474;-60
2022/03/06 09:17:58;;;;;;;46.60;26.77;;;24.90;1.00;;;;;;5008896;28;20458;-61
2022/03/06 09:20:26;;;;;;;39.03;15.77;;;25.00;1.00;;;;;;5019855;28;20478;-61
2022/03/06 09:22:53;;;;;;;39.57;15.50;;;25.00;1.00;;;;;;5016991;28;20487;-60
2022/03/06 09:25:20;;;;;;;41.73;20.33;;;25.70;1.00;;;;;;5001599;28;20551;-62
2022/03/06 09:27:47;;;;;;;41.17;18.77;;;25.80;1.00;;;;;;5004828;28;20491;-60
2022/03/06 09:30:14;;;;;;;39.90;17.10;;;25.30;1.00;;;;;;4989497;28;20467;-59
2022/03/06 09:32:43;;;;;;;44.30;19.50;;;24.80;1.00;;;;;;5004716;28;20481;-58
2022/03/06 09:35:10;;;;;;;42.33;19.30;;;23.60;1.00;;;;;;4994769;28;20473;-60
2022/03/06 09:37:38;;;;;;;40.60;17.50;;;23.70;1.00;;;;;;4996157;28;20591;-61
2022/03/06 09:40:05;;;;;;;38.67;15.17;;;24.90;1.00;;;;;;5013542;28;20862;-61
2022/03/06 09:42:33;;;;;;;39.17;16.10;;;25.80;1.00;;;;;;5012268;28;20497;-60
2022/03/06 09:45:04;;;;;;;39.50;15.83;;;26.50;1.00;;;;;;5017879;28;20502;-62
2022/03/06 09:47:30;;;;;;;38.10;14.13;;;26.80;1.00;;;;;;5019625;28;20466;-61
2022/03/06 09:49:59;;;;;;;39.80;15.83;;;27.30;1.00;;;;;;5018515;28;20501;-61
2022/03/06 09:52:26;;;;;;;37.47;15.20;;;27.80;1.00;;;;;;5014914;28;21133;-58
2022/03/06 09:54:54;;;;;;;39.50;15.10;;;28.00;1.00;;;;;;5026590;28;20998;-59
2022/03/06 09:57:21;;;;;;;37.60;14.60;;;28.30;1.00;;;;;;5022933;28;20495;-61
2022/03/06 09:59:48;;;;;;;38.30;15.60;;;28.40;1.00;;;;;;5022544;28;20920;-61
2022/03/06 10:02:15;;;;;;;36.67;14.43;;;28.60;1.00;;;;;;5018710;28;21257;-59
2022/03/06 10:04:43;;;;;;;39.53;15.57;;;29.00;1.00;;;;;;5019829;28;20474;-59
2022/03/06 10:07:12;;;;;;;37.57;14.33;;;28.40;1.00;;;;;;5013127;28;21052;-60
2022/03/06 10:09:44;;;;;;;41.90;14.67;;;27.20;1.00;;;;;;5045707;23;20495;-61
2022/03/06 10:12:27;;;;;;;41.00;14.53;;;26.40;1.00;;;;;;5018597;28;20469;-60
2022/03/06 10:14:55;;;;;;;37.53;12.23;;;26.10;1.00;;;;;;5019037;28;20463;-61
2022/03/06 10:17:23;;;;;;;36.97;12.57;;;25.70;1.00;;;;;;5017887;28;20473;-61
2022/03/06 10:19:56;;;;;;;39.27;13.60;;;24.90;1.00;;;;;;5017834;28;20513;-60
2022/03/06 10:22:26;;;;;;;38.97;14.53;;;24.70;1.00;;;;;;5016043;28;20578;-60
2022/03/06 10:24:54;;;;;;;38.53;13.70;;;24.30;1.00;;;;;;5018869;28;21226;-63
2022/03/06 10:27:43;;;;;;;36.77;11.83;;;24.00;1.00;;;;;;5019916;28;20471;-63
2022/03/06 10:30:24;;;;;;;39.90;14.60;;;23.60;1.00;;;;;;5017053;28;20509;-60
2022/03/06 10:32:50;;;;;;;37.97;12.80;;;23.70;1.00;;;;;;5024895;28;20475;-62
2022/03/06 10:35:17;;;;;;;39.30;13.00;;;23.80;1.00;;;;;;5024359;28;20455;-61
2022/03/06 10:37:45;;;;;;;38.47;12.37;;;22.40;1.00;;;;;;5017394;28;20466;-61
2022/03/06 10:40:14;;;;;;;37.93;12.43;;;22.30;1.00;;;;;;5019720;28;20463;-62
2022/03/06 10:42:41;;;;;;;37.53;11.67;;;21.60;1.00;;;;;;5017075;28;20514;-64
2022/03/06 10:45:22;;;;;;;42.10;14.37;;;20.80;1.00;;;;;;5020818;28;20470;-61
2022/03/06 10:47:48;;;;;;;39.87;13.17;;;21.50;1.00;;;;;;5023589;28;20467;-62
2022/03/06 10:50:21;;;;;;;40.33;14.07;;;21.10;1.00;;;;;;5016669;28;21147;-61
2022/03/06 10:52:53;;;;;;;40.80;13.00;;;19.10;1.00;;;;;;5016897;28;20459;-60
2022/03/06 10:55:33;;;;;;;38.80;11.77;;;18.90;1.00;;;;;;5018925;28;20468;-60
2022/03/06 10:58:00;;;;;;;40.57;12.80;;;18.60;1.00;;;;;;5021974;28;20486;-63
2022/03/06 11:00:28;;;;;;;40.63;12.90;;;19.00;1.00;;;;;;5025105;28;20471;-63
2022/03/06 11:02:57;;;;;;;40.20;12.83;;;19.90;1.00;;;;;;5019244;28;20490;-62
2022/03/06 11:05:27;;;;;;;39.83;12.30;;;18.60;1.00;;;;;;5021878;28;20459;-62
2022/03/06 11:07:56;;;;;;;43.03;12.80;;;16.90;1.00;;;;;;5023521;28;20983;-62
2022/03/06 11:10:23;;;;;;;43.53;14.17;;;16.10;1.00;;;;;;5026595;28;20542;-62
2022/03/06 11:12:50;;;;;;;40.97;12.20;;;14.90;1.00;;;;;;5024199;28;20458;-61
2022/03/06 11:15:18;;;;;;;42.00;13.83;;;15.20;1.00;;;;;;5025815;28;20467;-61
2022/03/06 11:17:46;;;;;;;41.23;13.23;;;16.00;1.00;;;;;;5019787;28;20830;-63
2022/03/06 11:20:13;;;;;;;40.80;13.40;;;14.90;1.00;;;;;;5014259;28;20470;-63
2022/03/06 11:22:48;;;;;;;40.30;12.10;;;15.10;1.00;;;;;;5018760;28;20904;-62
2022/03/06 11:25:25;;;;;;;41.90;12.70;;;14.80;1.00;;;;;;5024895;28;20458;-64
2022/03/06 11:28:11;;;;;;;44.70;14.07;;;14.30;1.00;;;;;;5018951;28;20854;-65
2022/03/06 11:30:38;;;;;;;41.27;12.50;;;16.10;1.00;;;;;;5025264;28;20459;-66
2022/03/06 11:33:07;;;;;;;41.60;12.43;;;17.10;1.00;;;;;;5023224;28;20463;-64
2022/03/06 11:35:35;;;;;;;41.60;12.60;;;17.20;1.00;;;;;;5024488;28;20470;-64
2022/03/06 11:38:05;;;;;;;40.33;12.23;;;17.30;1.00;;;;;;5026892;28;20490;-64
2022/03/06 11:40:49;;;;;;;42.20;12.63;;;17.70;1.00;;;;;;5024460;28;22116;-62
2022/03/06 11:43:43;;;;;;;43.07;13.37;;;16.60;1.00;;;;;;5026947;28;20831;-64
2022/03/06 11:46:16;;;;;;;39.93;11.87;;;14.60;1.00;;;;;;5027514;28;20467;-64
2022/03/06 11:49:10;;;;;;;39.50;11.40;;;13.60;1.00;;;;;;5040032;28;20487;-63
2022/03/06 11:51:48;;;;;;;42.77;12.40;;;12.90;1.00;;;;;;5024041;28;20542;-62
2022/03/06 11:54:40;;;;;;;42.70;12.67;;;12.20;1.00;;;;;;5021563;28;20455;-64
2022/03/06 11:57:09;;;;;;;42.27;11.70;;;11.60;1.00;;;;;;5023659;28;20988;-62
2022/03/06 11:59:46;;;;;;;41.10;11.83;;;11.50;1.00;;;;;;5027077;28;20498;-63
2022/03/06 12:02:19;;;;;;;44.30;13.60;;;11.60;1.00;;;;;;5024867;28;20515;-62
2022/03/06 12:04:47;;;;;;;42.53;12.47;;;12.10;1.00;;;;;;5021400;28;20455;-63
2022/03/06 12:07:17;;;;;;;42.03;12.87;;;12.30;1.00;;;;;;5018888;28;20473;-63
2022/03/06 12:09:45;;;;;;;41.43;11.60;;;12.70;1.00;;;;;;5025480;28;20493;-63
2022/03/06 12:12:14;;;;;;;41.20;12.43;;;12.80;1.00;;;;;;5023551;28;20991;-63
2022/03/06 12:14:43;;;;;;;41.20;12.60;;;12.80;1.00;;;;;;5021495;28;20466;-63
2022/03/06 12:17:26;;;;;;;42.50;12.53;;;12.90;1.00;;;;;;5024229;28;20964;-61
2022/03/06 12:20:28;;;;;;;42.67;13.47;;;12.90;1.00;;;;;;5024771;28;20493;-64
2022/03/06 12:23:02;;;;;;;41.13;12.53;;;13.10;1.00;;;;;;5021522;28;20489;-66
2022/03/06 12:25:34;;;;;;;41.33;11.63;;;13.10;1.00;;;;;;5025889;28;20558;-66
2022/03/06 12:28:25;;;;;;;41.60;11.60;;;13.00;1.00;;;;;;5025453;28;20487;-65
2022/03/06 12:30:54;;;;;;;42.90;13.63;;;12.60;1.00;;;;;;5027513;28;20491;-63
2022/03/06 12:33:42;;;;;;;41.43;12.93;;;12.60;1.00;;;;;;5025675;28;20944;-65
2022/03/06 12:36:16;;;;;;;41.80;11.70;;;13.10;1.00;;;;;;5023482;28;20977;-62
2022/03/06 12:38:44;;;;;;;42.77;12.37;;;12.80;1.00;;;;;;5026587;28;20486;-61